createdAt,value
2017-11-30T00:00:32.331Z,97763.61
2017-11-30T00:03:03.503Z,97759.68
2017-11-30T00:05:34.415Z,97760.33
2017-11-30T00:08:05.602Z,97754.18
2017-11-30T00:10:36.598Z,97752.47
2017-11-30T00:13:08.208Z,97756.02
2017-11-30T00:15:40.781Z,97749.84
2017-11-30T00:18:15.731Z,97745.61
2017-11-30T00:20:46.890Z,97745.80
2017-11-30T00:23:18.282Z,97744.66
2017-11-30T00:25:50.247Z,97745.05
2017-11-30T00:28:21.617Z,97746.97
2017-11-30T00:30:53.893Z,97733.44
2017-11-30T00:33:25.044Z,97735.66
2017-11-30T00:35:56.282Z,97733.78
2017-11-30T00:38:28.401Z,97725.86
2017-11-30T00:40:59.971Z,97725.75
2017-11-30T00:43:35.720Z,97726.86
2017-11-30T00:46:07.278Z,97721.20
2017-11-30T00:48:38.448Z,97728.11
2017-11-30T00:51:09.496Z,97728.48
2017-11-30T00:53:40.421Z,97725.97
2017-11-30T00:56:11.795Z,97723.20
2017-11-30T00:58:43.080Z,97727.48
2017-11-30T01:01:14.525Z,97726.64
2017-11-30T01:03:46.215Z,97726.28
2017-11-30T01:06:17.060Z,97721.67
2017-11-30T01:08:48.127Z,97720.45
2017-11-30T01:11:19.179Z,97721.12
2017-11-30T01:13:50.387Z,97718.19
2017-11-30T01:16:21.780Z,97718.00
2017-11-30T01:18:52.850Z,97714.66
2017-11-30T01:21:30.182Z,97717.69
2017-11-30T01:24:00.911Z,97718.87
2017-11-30T01:26:31.725Z,97718.53
2017-11-30T01:29:02.704Z,97720.13
2017-11-30T01:31:34.296Z,97721.44
2017-11-30T01:34:05.813Z,97718.43
2017-11-30T01:36:36.841Z,97714.02
2017-11-30T01:39:07.981Z,97717.13
2017-11-30T01:41:39.034Z,97709.23
2017-11-30T01:44:10.167Z,97714.92
2017-11-30T01:46:41.431Z,97710.13
2017-11-30T01:49:12.395Z,97708.67
2017-11-30T01:51:43.729Z,97707.34
2017-11-30T01:54:15.135Z,97708.64
2017-11-30T01:56:46.724Z,97715.67
2017-11-30T01:59:18.185Z,97716.21
2017-11-30T02:01:50.859Z,97712.45
2017-11-30T02:04:21.866Z,97708.75
2017-11-30T02:06:52.930Z,97707.41
2017-11-30T02:09:23.929Z,97698.78
2017-11-30T02:11:55.680Z,97696.36
2017-11-30T02:14:27.873Z,97697.84
2017-11-30T02:17:00.229Z,97697.06
2017-11-30T02:19:33.419Z,97706.55
2017-11-30T02:22:04.619Z,97699.87
2017-11-30T02:25:03.137Z,97697.92
2017-11-30T02:27:46.621Z,97694.27
2017-11-30T02:30:20.423Z,97709.13
2017-11-30T02:32:52.422Z,97708.63
2017-11-30T02:35:24.058Z,97708.91
2017-11-30T02:37:57.377Z,97705.63
2017-11-30T02:40:32.938Z,97710.98
2017-11-30T02:43:05.773Z,97706.60
2017-11-30T02:45:37.237Z,97705.67
2017-11-30T02:48:09.076Z,97704.78
2017-11-30T02:50:40.916Z,97704.66
2017-11-30T02:53:18.350Z,97705.11
2017-11-30T02:55:52.611Z,97705.29
2017-11-30T02:58:29.294Z,97696.49
2017-11-30T03:01:04.900Z,97700.66
2017-11-30T03:03:37.320Z,97701.11
2017-11-30T03:06:13.730Z,97699.41
2017-11-30T03:08:49.744Z,97696.30
2017-11-30T03:11:20.825Z,97696.87
2017-11-30T03:13:53.802Z,97697.61
2017-11-30T03:16:24.840Z,97697.25
2017-11-30T03:18:55.929Z,97686.13
2017-11-30T03:21:27.253Z,97692.39
2017-11-30T03:24:05.343Z,97689.14
2017-11-30T03:26:46.132Z,97693.05
2017-11-30T03:29:28.804Z,97698.96
2017-11-30T03:32:03.190Z,97700.27
2017-11-30T03:34:34.439Z,97689.78
2017-11-30T03:37:07.404Z,97686.23
2017-11-30T03:39:41.772Z,97685.45
2017-11-30T03:42:15.856Z,97673.00
2017-11-30T03:44:49.330Z,97676.30
2017-11-30T03:47:21.378Z,97665.16
2017-11-30T03:49:52.476Z,97670.00
2017-11-30T03:52:26.232Z,97670.97
2017-11-30T03:54:57.519Z,97665.70
2017-11-30T03:57:29.297Z,97668.05
2017-11-30T04:00:00.426Z,97669.30
2017-11-30T04:02:31.564Z,97663.58
2017-11-30T04:05:05.869Z,97669.39
2017-11-30T04:07:38.838Z,97664.67
2017-11-30T04:12:20.055Z,97675.92
2017-11-30T04:14:54.905Z,97672.56
2017-11-30T04:17:28.677Z,97676.62
2017-11-30T04:20:00.108Z,97669.91
2017-11-30T04:22:30.951Z,97673.29
2017-11-30T04:25:01.945Z,97671.71
2017-11-30T04:27:33.064Z,97664.88
2017-11-30T04:30:08.100Z,97672.52
2017-11-30T04:32:41.385Z,97671.01
2017-11-30T04:35:12.157Z,97666.91
2017-11-30T04:37:43.423Z,97662.94
2017-11-30T04:40:14.455Z,97658.89
2017-11-30T04:42:45.383Z,97661.27
2017-11-30T04:45:17.860Z,97664.30
2017-11-30T04:47:49.725Z,97661.77
2017-11-30T04:50:24.286Z,97663.13
2017-11-30T04:52:55.469Z,97667.01
2017-11-30T04:55:30.117Z,97661.70
2017-11-30T04:58:02.256Z,97663.91
2017-11-30T05:00:37.496Z,97668.41
2017-11-30T05:03:08.604Z,97663.95
2017-11-30T05:05:40.119Z,97661.41
2017-11-30T05:08:12.863Z,97665.55
2017-11-30T05:10:43.879Z,97666.95
2017-11-30T05:13:14.899Z,97664.34
2017-11-30T05:15:46.350Z,97665.01
2017-11-30T05:18:23.120Z,97667.42
2017-11-30T05:20:55.872Z,97665.91
2017-11-30T05:23:29.772Z,97666.86
2017-11-30T05:26:04.520Z,97672.08
2017-11-30T05:28:41.774Z,97665.66
2017-11-30T05:31:17.871Z,97666.59
2017-11-30T05:33:49.262Z,97668.77
2017-11-30T05:36:49.903Z,97668.21
